Time;durP1;ratioP1;P1;durP2;ratioP2;P2;SDS_P1;SDS_P2;PMS_P1;PMS_P2;Temp;Humidity;BMP_temperature;BMP_pressure;BME280_temperature;BME280_humidity;BME280_pressure;Samples;Min_cycle;Max_cycle;Signal;HPM_P1;HPM_P2
2022/05/10 11:30:18;;;;;;;5.57;5.07;;;21.90;49.70;;;;;;5079903;27;20547;-48
2022/05/10 11:33:10;;;;;;;5.27;4.77;;;21.90;51.00;;;;;;5073989;28;21042;-48
2022/05/10 11:35:56;;;;;;;5.27;4.20;;;22.00;51.60;;;;;;5037733;28;20450;-48
2022/05/10 11:38:50;;;;;;;6.63;4.47;;;21.90;52.20;;;;;;5028367;28;20472;-46
2022/05/10 11:41:31;;;;;;;5.87;5.10;;;21.90;52.60;;;;;;5039273;28;20438;-46
2022/05/10 11:44:35;;;;;;;3.80;3.50;;;21.90;53.00;;;;;;5020007;28;20468;-48
2022/05/10 11:47:48;;;;;;;4.40;4.10;;;21.80;53.20;;;;;;5017748;28;20717;-46
2022/05/10 11:50:35;;;;;;;3.87;3.57;;;21.80;54.70;;;;;;5057752;28;21006;-48
2022/05/10 11:53:55;;;;;;;4.57;4.27;;;21.80;53.70;;;;;;5054543;28;20870;-46
2022/05/10 11:56:31;;;;;;;4.73;4.43;;;21.80;53.70;;;;;;5055593;28;20503;-47
2022/05/10 11:59:07;;;;;;;4.50;4.20;;;21.80;53.70;;;;;;5059014;28;20989;-48
2022/05/10 12:01:44;;;;;;;4.50;4.10;;;21.80;53.90;;;;;;5061292;28;20430;-47
2022/05/10 12:04:40;;;;;;;4.77;4.37;;;21.80;55.20;;;;;;5058575;28;20508;-46
2022/05/10 12:07:34;;;;;;;4.03;3.77;;;21.80;54.20;;;;;;5056904;28;20451;-46
2022/05/10 12:10:07;;;;;;;4.00;3.70;;;21.80;54.30;;;;;;5050360;28;20486;-47
2022/05/10 12:12:59;;;;;;;4.70;4.40;;;21.90;54.40;;;;;;5059090;28;20483;-46
2022/05/10 12:21:52;;;;;;;5.03;4.63;;;21.80;54.60;;;;;;5040644;28;20440;-46
2022/05/10 12:24:36;;;;;;;5.07;4.57;;;21.90;54.80;;;;;;5052553;28;20479;-45
2022/05/10 12:27:34;;;;;;;4.83;4.50;;;21.90;54.80;;;;;;5056111;28;20463;-45
2022/05/10 12:30:12;;;;;;;4.27;3.97;;;21.90;54.70;;;;;;5042083;28;21015;-45
2022/05/10 12:32:50;;;;;;;5.30;4.70;;;21.90;54.80;;;;;;5043408;28;20785;-45
2022/05/10 12:35:36;;;;;;;4.70;4.40;;;21.90;54.80;;;;;;5050207;28;20538;-46
2022/05/10 12:38:43;;;;;;;4.67;4.23;;;21.90;54.90;;;;;;5041092;28;20550;-45
2022/05/10 12:41:31;;;;;;;8.90;4.50;;;21.90;54.90;;;;;;5039031;28;20450;-46
2022/05/10 12:44:41;;;;;;;5.10;4.70;;;21.90;55.00;;;;;;5044219;28;21113;-47
2022/05/10 12:47:20;;;;;;;4.80;4.30;;;21.90;55.10;;;;;;5028477;28;20474;-46
2022/05/10 12:50:03;;;;;;;5.23;4.83;;;22.00;55.10;;;;;;5005435;28;20893;-45
2022/05/10 12:52:40;;;;;;;4.33;3.93;;;22.00;55.10;;;;;;5006872;28;20762;-47
2022/05/10 12:55:17;;;;;;;5.00;4.50;;;21.90;55.10;;;;;;5022604;28;20451;-45
2022/05/10 12:57:52;;;;;;;4.80;4.30;;;22.00;55.30;;;;;;5014401;28;20431;-46
2022/05/10 13:00:23;;;;;;;4.73;4.43;;;21.90;55.10;;;;;;5014155;28;20839;-45
2022/05/10 13:02:55;;;;;;;4.23;3.93;;;21.90;55.20;;;;;;5014935;28;20473;-47
2022/05/10 13:05:41;;;;;;;4.37;4.07;;;22.00;55.40;;;;;;5021319;28;20490;-46
2022/05/10 13:08:31;;;;;;;4.93;4.60;;;22.00;55.30;;;;;;5009480;28;20480;-47
2022/05/10 13:11:23;;;;;;;4.13;3.83;;;22.00;55.40;;;;;;5017241;28;20764;-47
2022/05/10 13:13:54;;;;;;;4.50;4.20;;;22.00;55.40;;;;;;5016542;28;21054;-44
2022/05/10 13:16:23;;;;;;;5.30;4.70;;;22.00;55.40;;;;;;5015161;28;20464;-47
2022/05/10 13:18:53;;;;;;;4.60;4.30;;;22.00;55.40;;;;;;5021141;28;20910;-46
2022/05/10 13:21:26;;;;;;;5.70;3.90;;;22.00;55.40;;;;;;5016586;28;20433;-47
2022/05/10 13:23:55;;;;;;;5.07;4.57;;;22.00;55.50;;;;;;5009961;28;20484;-45
2022/05/10 13:26:25;;;;;;;3.83;3.53;;;22.00;55.50;;;;;;5013951;28;20452;-47
2022/05/10 13:28:55;;;;;;;4.83;4.53;;;22.00;55.50;;;;;;5008703;28;20476;-47
2022/05/10 13:31:27;;;;;;;4.87;4.47;;;22.00;55.40;;;;;;5010854;28;20452;-47
2022/05/10 13:34:12;;;;;;;4.60;4.20;;;22.00;55.50;;;;;;5005949;28;20502;-46
2022/05/10 13:36:46;;;;;;;4.70;4.40;;;22.00;55.50;;;;;;5009698;28;20491;-46
2022/05/10 13:39:21;;;;;;;4.00;3.70;;;22.00;55.60;;;;;;5010051;28;20505;-44
2022/05/10 13:41:52;;;;;;;4.23;3.93;;;22.10;55.60;;;;;;5018188;28;20862;-46
2022/05/10 13:44:23;;;;;;;3.90;3.60;;;22.10;55.50;;;;;;5005542;28;20926;-44
2022/05/10 13:46:56;;;;;;;4.60;4.30;;;22.10;55.60;;;;;;5013131;28;21024;-44
2022/05/10 13:49:29;;;;;;;5.40;4.90;;;22.10;55.30;;;;;;5012977;28;20468;-48
2022/05/10 13:52:03;;;;;;;4.73;4.20;;;22.10;53.20;;;;;;5009820;28;20559;-43
2022/05/10 13:54:35;;;;;;;4.30;4.00;;;22.10;52.10;;;;;;5006785;28;20473;-45
2022/05/10 13:57:15;;;;;;;4.67;4.30;;;22.20;52.60;;;;;;5005925;28;20475;-48
2022/05/10 13:59:43;;;;;;;5.13;4.50;;;22.20;52.80;;;;;;5005270;28;20457;-45
2022/05/10 14:02:13;;;;;;;5.03;4.00;;;22.20;52.90;;;;;;5004972;28;20436;-47
2022/05/10 14:04:45;;;;;;;5.13;4.63;;;22.20;53.20;;;;;;5008734;28;20556;-44
2022/05/10 14:07:16;;;;;;;4.70;4.20;;;22.20;53.30;;;;;;5025731;28;20975;-47
2022/05/10 14:09:47;;;;;;;4.73;4.33;;;22.20;53.50;;;;;;5023053;28;20476;-46
2022/05/10 14:12:27;;;;;;;4.83;4.53;;;22.20;53.60;;;;;;5024273;28;20444;-47
2022/05/10 14:14:59;;;;;;;7.07;4.90;;;22.20;53.70;;;;;;5024303;28;20967;-45
2022/05/10 14:17:28;;;;;;;6.00;4.63;;;22.20;53.70;;;;;;5024963;28;20442;-45
2022/05/10 14:19:58;;;;;;;4.73;4.33;;;22.20;53.90;;;;;;5024457;28;20454;-47
2022/05/10 14:22:27;;;;;;;4.73;4.30;;;22.20;53.90;;;;;;5025003;28;20432;-45
2022/05/10 14:24:55;;;;;;;5.03;4.63;;;22.20;54.10;;;;;;5043308;28;20800;-46
2022/05/10 14:27:27;;;;;;;5.23;4.57;;;22.20;54.20;;;;;;5044275;28;20710;-45
2022/05/10 14:29:58;;;;;;;4.97;4.67;;;22.20;54.20;;;;;;5038985;28;20461;-46
2022/05/10 14:32:39;;;;;;;5.07;4.73;;;22.20;54.20;;;;;;5024440;28;20568;-45
2022/05/10 14:35:10;;;;;;;5.40;5.00;;;22.20;54.30;;;;;;5029816;28;20484;-45
2022/05/10 14:37:43;;;;;;;4.80;4.27;;;22.20;54.30;;;;;;5040928;28;20447;-44
2022/05/10 14:40:25;;;;;;;4.40;4.10;;;22.20;55.60;;;;;;5018274;28;20511;-43
2022/05/10 14:42:58;;;;;;;4.57;4.27;;;22.20;54.50;;;;;;5007676;28;20454;-44
2022/05/10 14:45:38;;;;;;;4.73;4.33;;;22.20;54.50;;;;;;5019601;28;20517;-45
2022/05/10 14:48:25;;;;;;;4.33;3.93;;;22.20;54.50;;;;;;5023471;28;20467;-44
2022/05/10 14:50:56;;;;;;;5.13;4.70;;;22.20;54.50;;;;;;5015503;28;20492;-45
2022/05/10 14:53:27;;;;;;;4.73;4.40;;;22.20;54.50;;;;;;5011617;28;20477;-47
2022/05/10 14:56:16;;;;;;;4.67;4.37;;;22.30;54.70;;;;;;5004453;28;20458;-47
2022/05/10 14:58:48;;;;;;;5.00;4.50;;;22.30;54.50;;;;;;5022749;28;20470;-44
2022/05/10 15:01:27;;;;;;;4.73;4.30;;;22.30;54.60;;;;;;5024584;28;20444;-44
2022/05/10 15:04:06;;;;;;;5.20;4.57;;;22.30;54.50;;;;;;5007260;28;21159;-44
2022/05/10 15:06:36;;;;;;;4.67;4.27;;;22.30;54.50;;;;;;5014909;28;20507;-44
2022/05/10 15:09:05;;;;;;;5.47;5.07;;;22.30;54.50;;;;;;5009634;28;20465;-45
2022/05/10 15:13:01;;;;;;;5.00;4.60;;;22.30;54.60;;;;;;5009695;28;20984;-45
2022/05/10 15:14:25;;;;;;;5.77;5.30;;;22.30;54.60;;;;;;5009831;28;20565;-46
2022/05/10 15:16:53;;;;;;;4.60;4.30;;;22.30;54.50;;;;;;5004631;28;20463;-48
2022/05/10 15:19:21;;;;;;;5.20;4.80;;;22.30;54.50;;;;;;5005803;28;20563;-45
2022/05/10 15:21:52;;;;;;;5.17;4.67;;;22.30;54.50;;;;;;5014510;28;20757;-44
2022/05/10 15:24:20;;;;;;;5.27;4.80;;;22.40;54.40;;;;;;5002587;28;20874;-45
2022/05/10 15:26:54;;;;;;;5.47;5.10;;;22.40;53.70;;;;;;5007567;28;20493;-45
2022/05/10 15:29:27;;;;;;;5.53;4.93;;;22.50;53.00;;;;;;5003532;28;20470;-45
2022/05/10 15:31:56;;;;;;;5.10;4.73;;;22.60;52.20;;;;;;5004189;28;20477;-45
2022/05/10 15:34:46;;;;;;;6.60;4.30;;;22.60;51.80;;;;;;5007742;28;20531;-43
2022/05/10 15:37:16;;;;;;;5.03;4.60;;;22.70;50.50;;;;;;5006973;28;20466;-43
2022/05/10 15:39:45;;;;;;;4.77;4.33;;;22.70;49.70;;;;;;5002983;28;20563;-43
2022/05/10 15:42:20;;;;;;;4.87;4.53;;;22.80;49.50;;;;;;5018664;28;20442;-45
2022/05/10 15:44:50;;;;;;;7.07;4.73;;;22.80;48.90;;;;;;5009443;28;20508;-46
2022/05/10 15:47:22;;;;;;;5.43;4.93;;;22.90;48.80;;;;;;5004986;28;20465;-45
2022/05/10 15:49:58;;;;;;;4.47;4.07;;;22.90;47.90;;;;;;5022184;28;20996;-44
2022/05/10 15:52:27;;;;;;;5.47;4.97;;;22.90;48.20;;;;;;5043082;28;20790;-45
2022/05/10 15:54:58;;;;;;;4.93;4.20;;;22.90;48.00;;;;;;5041856;28;20461;-43
2022/05/10 15:57:26;;;;;;;4.90;4.50;;;22.90;48.00;;;;;;5039258;28;20891;-45
2022/05/10 15:59:55;;;;;;;4.70;4.30;;;22.90;47.00;;;;;;5042045;28;21078;-43
2022/05/10 16:02:26;;;;;;;4.60;4.20;;;22.90;47.00;;;;;;5026885;28;20446;-44
2022/05/10 16:04:56;;;;;;;5.10;4.70;;;23.00;47.10;;;;;;5040772;28;20975;-43
2022/05/10 16:07:24;;;;;;;4.90;4.50;;;23.00;46.80;;;;;;5041479;28;20465;-44
2022/05/10 16:09:53;;;;;;;5.23;4.70;;;23.00;47.00;;;;;;5021964;28;20988;-45
2022/05/10 16:12:22;;;;;;;5.83;4.40;;;23.10;46.50;;;;;;5026711;28;21015;-44
2022/05/10 16:14:50;;;;;;;4.13;3.83;;;23.00;46.30;;;;;;5036193;28;20493;-44
2022/05/10 16:17:21;;;;;;;4.27;3.97;;;23.00;46.50;;;;;;5026483;28;20541;-44
2022/05/10 16:20:05;;;;;;;7.13;4.70;;;23.00;46.40;;;;;;5035376;28;20471;-44
2022/05/10 16:22:34;;;;;;;4.60;4.30;;;23.00;46.20;;;;;;5025711;28;20991;-42
2022/05/10 16:25:02;;;;;;;4.97;4.47;;;23.00;46.20;;;;;;5030842;28;20440;-45
2022/05/10 16:30:17;;;;;;;4.07;3.80;;;23.00;46.10;;;;;;5046810;28;20438;-44
2022/05/10 16:32:46;;;;;;;4.87;4.37;;;23.10;46.30;;;;;;5033679;28;20467;-43
2022/05/10 16:35:15;;;;;;;4.33;4.00;;;23.10;46.00;;;;;;5036508;28;20911;-47
2022/05/10 16:37:43;;;;;;;4.30;4.00;;;23.10;46.10;;;;;;5045181;28;20998;-44
2022/05/10 16:40:12;;;;;;;4.40;4.00;;;23.10;45.80;;;;;;5040125;28;20861;-45
2022/05/10 16:42:40;;;;;;;3.87;3.57;;;23.10;45.80;;;;;;5032494;28;20445;-44
2022/05/10 16:45:10;;;;;;;5.57;4.43;;;23.10;45.70;;;;;;5038368;28;20424;-44
2022/05/10 16:47:39;;;;;;;5.33;4.67;;;23.10;46.00;;;;;;5025679;28;20438;-45
2022/05/10 16:50:10;;;;;;;4.90;4.50;;;23.20;45.50;;;;;;5027505;28;20963;-46
2022/05/10 16:52:40;;;;;;;4.90;4.50;;;23.20;45.50;;;;;;5025914;28;20945;-44
2022/05/10 16:55:10;;;;;;;3.93;3.60;;;23.20;45.90;;;;;;5038573;28;20440;-46
2022/05/10 16:57:39;;;;;;;4.77;4.23;;;23.20;45.90;;;;;;5032574;28;20550;-43
2022/05/10 17:00:13;;;;;;;6.40;4.13;;;23.20;45.90;;;;;;5024880;28;20440;-45
2022/05/10 17:02:41;;;;;;;4.43;4.13;;;23.20;46.00;;;;;;5035933;28;20431;-44
2022/05/10 17:05:13;;;;;;;4.60;4.20;;;23.20;45.90;;;;;;5042441;28;20427;-46
2022/05/10 17:07:42;;;;;;;4.60;4.20;;;23.20;45.90;;;;;;5043521;28;20520;-45
2022/05/10 17:10:14;;;;;;;5.07;4.77;;;23.20;46.20;;;;;;5044483;28;20472;-45
2022/05/10 17:12:42;;;;;;;4.40;4.10;;;23.20;46.00;;;;;;5037063;28;20464;-44
2022/05/10 17:15:12;;;;;;;4.73;4.43;;;23.20;46.20;;;;;;5029042;28;20485;-47
2022/05/10 17:17:40;;;;;;;4.83;4.40;;;23.20;45.90;;;;;;5041125;28;20439;-45
2022/05/10 17:20:15;;;;;;;4.27;3.97;;;23.20;46.20;;;;;;5037136;28;20449;-43
2022/05/10 17:22:44;;;;;;;4.47;4.17;;;23.20;46.20;;;;;;5033848;28;20460;-43
2022/05/10 17:25:15;;;;;;;4.43;4.10;;;23.20;46.20;;;;;;5034088;28;20427;-45
2022/05/10 17:27:56;;;;;;;5.23;4.80;;;23.20;46.00;;;;;;5037841;28;21442;-44
2022/05/10 17:30:25;;;;;;;5.23;4.73;;;23.20;45.70;;;;;;5046589;28;20816;-44
2022/05/10 17:32:55;;;;;;;5.90;5.20;;;23.20;46.10;;;;;;5041716;28;20464;-42
2022/05/10 17:35:24;;;;;;;4.57;4.27;;;23.20;45.60;;;;;;5040972;28;20444;-44
2022/05/10 17:37:53;;;;;;;4.50;4.10;;;23.20;45.70;;;;;;5031468;28;21050;-43
2022/05/10 17:40:21;;;;;;;4.20;3.90;;;23.20;45.60;;;;;;5039156;28;20538;-48
2022/05/10 17:42:50;;;;;;;4.13;3.80;;;23.20;45.40;;;;;;5041103;28;21044;-45
2022/05/10 17:45:19;;;;;;;4.17;3.87;;;23.20;45.50;;;;;;5043643;28;20446;-45
2022/05/10 17:47:47;;;;;;;4.10;3.80;;;23.20;46.10;;;;;;5032870;28;20598;-45
2022/05/10 17:50:20;;;;;;;3.80;3.50;;;23.10;47.50;;;;;;5038563;28;20488;-46
2022/05/10 17:52:50;;;;;;;3.40;3.10;;;23.10;46.60;;;;;;5044083;28;20463;-47
2022/05/10 17:55:20;;;;;;;3.80;3.50;;;23.10;46.70;;;;;;5036296;28;20926;-45
2022/05/10 17:57:48;;;;;;;3.70;3.40;;;23.00;47.00;;;;;;5031110;28;20482;-45
2022/05/10 18:00:20;;;;;;;3.10;2.90;;;23.00;48.50;;;;;;5040650;28;20446;-46
2022/05/10 18:02:50;;;;;;;3.33;3.13;;;23.00;47.50;;;;;;5043453;28;20454;-43
2022/05/10 18:05:20;;;;;;;3.77;3.47;;;23.00;47.70;;;;;;5027635;28;20962;-46
2022/05/10 18:07:51;;;;;;;3.70;3.50;;;23.00;47.80;;;;;;5041112;28;20463;-45
2022/05/10 18:10:20;;;;;;;3.57;3.27;;;23.00;47.80;;;;;;5029256;28;20462;-44
2022/05/10 18:12:49;;;;;;;3.93;3.63;;;23.00;48.00;;;;;;5042730;28;20450;-46
2022/05/10 18:15:17;;;;;;;3.80;3.50;;;23.00;48.10;;;;;;5024174;28;20446;-46
2022/05/10 18:17:45;;;;;;;3.87;3.57;;;22.90;48.20;;;;;;5024333;28;20443;-45
2022/05/10 18:20:19;;;;;;;4.27;3.97;;;22.90;48.40;;;;;;5025715;28;20509;-45
2022/05/10 18:22:47;;;;;;;3.50;3.30;;;23.00;48.60;;;;;;5043328;28;20430;-44
2022/05/10 18:25:17;;;;;;;5.00;4.50;;;23.00;48.70;;;;;;5033975;28;20441;-45
2022/05/10 18:27:45;;;;;;;3.77;3.50;;;22.90;48.60;;;;;;5029427;28;20524;-45
2022/05/10 18:30:16;;;;;;;4.00;3.60;;;23.00;49.20;;;;;;5039918;28;20471;-45
2022/05/10 18:32:45;;;;;;;4.33;3.80;;;23.00;48.80;;;;;;5025505;28;20524;-46
2022/05/10 18:35:14;;;;;;;3.87;3.63;;;23.00;48.90;;;;;;5042889;28;20466;-44
2022/05/10 18:37:42;;;;;;;3.90;3.60;;;23.00;49.00;;;;;;5040992;28;20453;-46
2022/05/10 18:40:11;;;;;;;4.50;4.20;;;22.90;49.10;;;;;;5042547;28;20450;-45
2022/05/10 18:42:41;;;;;;;3.83;3.53;;;22.90;49.10;;;;;;5039939;28;20525;-46
2022/05/10 18:45:12;;;;;;;3.80;3.50;;;22.90;49.30;;;;;;5027688;28;20442;-45
2022/05/10 18:47:40;;;;;;;3.80;3.50;;;23.00;49.50;;;;;;5024385;28;20466;-45
2022/05/10 18:50:10;;;;;;;4.03;3.63;;;23.00;49.60;;;;;;5026681;28;20858;-45
2022/05/10 18:52:39;;;;;;;3.83;3.53;;;22.90;49.70;;;;;;5030847;28;20603;-44
2022/05/10 18:55:08;;;;;;;3.73;3.43;;;23.00;49.70;;;;;;5042252;28;20915;-44
2022/05/10 18:57:37;;;;;;;4.07;3.80;;;23.00;49.80;;;;;;5041745;28;20452;-46
2022/05/10 19:00:08;;;;;;;4.30;4.00;;;23.00;49.90;;;;;;5043717;28;20997;-47
2022/05/10 19:02:36;;;;;;;3.70;3.40;;;23.00;49.90;;;;;;5023551;28;20471;-45
2022/05/10 19:05:05;;;;;;;3.80;3.50;;;23.00;49.90;;;;;;5029252;28;20864;-46
2022/05/10 19:07:34;;;;;;;3.20;3.00;;;23.00;49.90;;;;;;5042851;28;20466;-45
2022/05/10 19:10:02;;;;;;;5.00;3.50;;;23.00;50.00;;;;;;5042944;28;20427;-47
2022/05/10 19:12:30;;;;;;;3.90;3.53;;;23.00;50.00;;;;;;5041836;28;20476;-47
2022/05/10 19:14:58;;;;;;;4.70;4.40;;;23.00;50.10;;;;;;5041824;28;20463;-46
2022/05/10 19:17:28;;;;;;;3.80;3.50;;;23.00;50.30;;;;;;5041819;28;20472;-47
2022/05/10 19:20:03;;;;;;;4.23;3.93;;;23.00;50.40;;;;;;5027724;28;20494;-47
2022/05/10 19:22:32;;;;;;;4.13;3.80;;;23.00;50.40;;;;;;5022990;28;20428;-46
2022/05/10 19:25:00;;;;;;;3.50;3.30;;;23.00;50.30;;;;;;5021309;28;20446;-46
2022/05/10 19:27:28;;;;;;;3.47;3.17;;;23.00;50.40;;;;;;5036123;28;20469;-45
2022/05/10 19:29:56;;;;;;;4.00;3.70;;;23.00;50.40;;;;;;5026263;28;20462;-48
2022/05/10 19:32:24;;;;;;;4.00;3.70;;;23.00;50.50;;;;;;5042993;28;20808;-47
2022/05/10 19:34:54;;;;;;;3.20;3.00;;;23.00;50.50;;;;;;5041672;28;20886;-45
2022/05/10 19:37:22;;;;;;;3.70;3.50;;;23.00;50.70;;;;;;5041731;28;20466;-45
2022/05/10 19:39:50;;;;;;;3.40;3.17;;;23.00;50.80;;;;;;5022289;28;21401;-46
2022/05/10 19:42:18;;;;;;;4.23;4.00;;;23.00;50.90;;;;;;5035229;28;21001;-44
2022/05/10 19:44:49;;;;;;;3.20;3.00;;;23.00;51.00;;;;;;5023739;28;20470;-48
2022/05/10 19:47:17;;;;;;;3.83;3.53;;;23.00;51.10;;;;;;5037271;28;20896;-45
2022/05/10 19:49:45;;;;;;;3.53;3.33;;;23.00;51.00;;;;;;5022595;28;21065;-46
2022/05/10 19:52:15;;;;;;;3.77;3.47;;;23.00;51.00;;;;;;5027070;28;20443;-47
2022/05/10 19:54:43;;;;;;;4.17;3.87;;;23.00;51.00;;;;;;5024520;28;20525;-45
2022/05/10 19:57:11;;;;;;;4.00;3.70;;;23.00;51.20;;;;;;5037924;28;20459;-46
2022/05/10 19:59:40;;;;;;;3.80;3.40;;;23.00;51.30;;;;;;5046441;28;20459;-47
2022/05/10 20:07:41;;;;;;;3.73;3.43;;;23.00;51.40;;;;;;5046078;28;20466;-47
2022/05/10 20:10:10;;;;;;;3.90;3.70;;;23.10;51.60;;;;;;5033801;28;20432;-45
2022/05/10 20:12:58;;;;;;;3.57;3.20;;;23.00;51.50;;;;;;5041931;28;20475;-46
2022/05/10 20:15:27;;;;;;;3.57;3.37;;;23.10;51.60;;;;;;5044774;28;20536;-47
2022/05/10 20:17:57;;;;;;;3.70;3.40;;;23.00;52.80;;;;;;5046749;28;20469;-48
2022/05/10 20:20:28;;;;;;;4.27;3.97;;;23.00;51.70;;;;;;5044862;28;20430;-45
2022/05/10 20:22:57;;;;;;;3.83;3.60;;;23.00;51.70;;;;;;5045683;28;20488;-45
2022/05/10 20:25:28;;;;;;;3.90;3.60;;;23.10;51.80;;;;;;5045664;28;20460;-45
2022/05/10 20:27:56;;;;;;;3.57;3.30;;;23.10;51.80;;;;;;5043098;28;20466;-46
2022/05/10 20:30:25;;;;;;;4.30;4.00;;;23.10;53.00;;;;;;5045825;28;20430;-46
2022/05/10 20:32:55;;;;;;;6.17;4.40;;;23.10;51.70;;;;;;5044425;28;20536;-44
2022/05/10 20:35:25;;;;;;;4.03;3.70;;;23.10;51.80;;;;;;5043244;28;20441;-45
2022/05/10 20:37:53;;;;;;;3.97;3.67;;;23.10;51.70;;;;;;5044870;28;20451;-48
2022/05/10 20:40:28;;;;;;;3.70;3.50;;;23.10;51.80;;;;;;5036364;28;20938;-45
2022/05/10 20:42:59;;;;;;;4.30;4.00;;;23.10;51.80;;;;;;5028756;28;20994;-44
2022/05/10 20:45:30;;;;;;;3.93;3.73;;;23.10;51.80;;;;;;5024534;28;20442;-45
2022/05/10 20:47:59;;;;;;;3.93;3.63;;;23.10;51.90;;;;;;5025500;28;20465;-47
2022/05/10 20:50:28;;;;;;;5.03;3.93;;;23.10;51.80;;;;;;5034912;28;20445;-46
2022/05/10 20:52:56;;;;;;;5.80;4.07;;;23.10;51.80;;;;;;5044349;28;20979;-45
2022/05/10 20:55:27;;;;;;;3.87;3.57;;;23.10;51.80;;;;;;5037579;28;20430;-45
2022/05/10 20:57:57;;;;;;;4.00;3.70;;;23.10;51.80;;;;;;5043317;28;21019;-45
2022/05/10 21:00:26;;;;;;;4.03;3.73;;;23.10;51.90;;;;;;5044996;28;20514;-44
2022/05/10 21:02:54;;;;;;;3.53;3.23;;;23.10;52.10;;;;;;5043900;28;20525;-46
2022/05/10 21:05:26;;;;;;;4.07;3.77;;;23.10;52.20;;;;;;5036600;28;20431;-46
2022/05/10 21:10:43;;;;;;;4.13;3.83;;;23.10;53.50;;;;;;5027446;28;20446;-46
2022/05/10 21:13:13;;;;;;;3.83;3.53;;;23.10;52.20;;;;;;5034598;28;20984;-46
2022/05/10 21:16:02;;;;;;;3.33;3.10;;;23.10;52.20;;;;;;5044443;28;20461;-45
2022/05/10 21:18:49;;;;;;;3.57;3.27;;;23.10;52.20;;;;;;5044422;28;20735;-47
2022/05/10 21:21:36;;;;;;;3.83;3.53;;;23.10;52.20;;;;;;5043911;28;20446;-45
2022/05/10 21:24:24;;;;;;;3.97;3.57;;;23.10;52.20;;;;;;5038789;28;20651;-45
2022/05/10 21:27:12;;;;;;;3.60;3.40;;;23.10;52.20;;;;;;5033729;28;20974;-45
2022/05/10 21:32:29;;;;;;;3.33;3.13;;;23.10;52.30;;;;;;5024887;28;20485;-49
2022/05/10 21:34:59;;;;;;;3.50;3.30;;;23.10;52.40;;;;;;5027965;28;20884;-46
2022/05/10 21:37:32;;;;;;;3.73;3.50;;;23.10;52.40;;;;;;5029995;28;20493;-46
2022/05/10 21:40:00;;;;;;;4.00;3.70;;;23.10;52.60;;;;;;5024373;28;20969;-46
2022/05/10 21:42:30;;;;;;;4.80;3.90;;;23.20;52.70;;;;;;5025766;28;20831;-46
2022/05/10 21:44:58;;;;;;;3.53;3.30;;;23.10;52.70;;;;;;5024662;28;20423;-47
2022/05/10 21:47:26;;;;;;;3.40;3.20;;;23.10;52.70;;;;;;5044381;28;20940;-47
2022/05/10 21:49:54;;;;;;;3.70;3.50;;;23.10;52.70;;;;;;5043052;28;20803;-46
2022/05/10 21:52:22;;;;;;;4.60;3.03;;;23.10;52.70;;;;;;5044810;28;20573;-47
2022/05/10 21:54:50;;;;;;;3.80;3.50;;;23.20;52.80;;;;;;5043319;28;21019;-45
2022/05/10 21:57:19;;;;;;;3.53;3.23;;;23.10;52.70;;;;;;5042047;28;20466;-46
2022/05/10 21:59:48;;;;;;;3.50;3.30;;;23.20;53.00;;;;;;5044595;28;20460;-45
2022/05/10 22:02:16;;;;;;;3.63;3.33;;;23.20;52.90;;;;;;5044227;28;20549;-44
2022/05/10 22:04:44;;;;;;;4.33;3.97;;;23.20;52.90;;;;;;5042631;28;20517;-45
2022/05/10 22:07:13;;;;;;;3.60;3.30;;;23.20;52.60;;;;;;5026941;28;20890;-46
2022/05/10 22:09:41;;;;;;;5.63;4.23;;;23.10;52.50;;;;;;5024817;28;21017;-47
2022/05/10 22:12:10;;;;;;;3.17;2.97;;;23.10;52.60;;;;;;5039109;28;20454;-45
2022/05/10 22:14:38;;;;;;;3.77;3.07;;;23.10;52.80;;;;;;5042837;28;20573;-46
2022/05/10 22:17:07;;;;;;;3.93;3.60;;;23.10;52.90;;;;;;5029202;28;20507;-46
2022/05/10 22:19:36;;;;;;;4.43;3.70;;;23.10;52.70;;;;;;5022850;28;20518;-46
2022/05/10 22:22:04;;;;;;;4.20;3.90;;;23.10;52.90;;;;;;5040189;28;20445;-45
2022/05/10 22:24:33;;;;;;;3.50;3.20;;;23.10;52.90;;;;;;5042173;28;20520;-45
2022/05/10 22:27:01;;;;;;;5.33;3.23;;;23.20;53.10;;;;;;5043052;28;20550;-46
2022/05/10 22:29:29;;;;;;;6.13;3.40;;;23.10;52.90;;;;;;5037016;28;21089;-48
2022/05/10 22:31:57;;;;;;;3.13;2.93;;;23.10;53.00;;;;;;5025116;28;20559;-46
2022/05/10 22:34:27;;;;;;;3.17;2.93;;;23.10;53.10;;;;;;5024991;28;20532;-47
2022/05/10 22:36:55;;;;;;;3.77;3.47;;;23.10;53.00;;;;;;5044227;28;20518;-45
2022/05/10 22:39:23;;;;;;;3.83;3.53;;;23.10;53.00;;;;;;5039612;28;20502;-45
2022/05/10 22:41:51;;;;;;;3.60;3.30;;;23.10;53.10;;;;;;5032082;28;20948;-46
2022/05/10 22:44:19;;;;;;;3.40;3.13;;;23.10;52.90;;;;;;5042073;28;21271;-45
2022/05/10 22:46:47;;;;;;;3.40;3.00;;;23.10;53.00;;;;;;5043664;28;20450;-45
2022/05/10 22:49:16;;;;;;;3.30;3.10;;;23.10;53.00;;;;;;5031232;28;20467;-48
2022/05/10 22:51:45;;;;;;;4.07;3.50;;;23.10;53.20;;;;;;5034760;28;20806;-47
2022/05/10 22:54:13;;;;;;;3.50;3.20;;;23.10;53.20;;;;;;5022783;28;21006;-47
2022/05/10 22:56:41;;;;;;;3.97;3.67;;;23.10;53.20;;;;;;5042505;28;20465;-48
2022/05/10 22:59:10;;;;;;;3.17;2.87;;;23.10;53.20;;;;;;5023184;28;20949;-47
2022/05/10 23:01:38;;;;;;;3.40;3.10;;;23.10;53.20;;;;;;5022543;28;20538;-46
2022/05/10 23:04:07;;;;;;;3.57;3.30;;;23.10;53.40;;;;;;5021226;28;20474;-45
2022/05/10 23:06:35;;;;;;;3.00;2.80;;;23.10;53.30;;;;;;5043542;28;20509;-46
2022/05/10 23:09:05;;;;;;;3.03;2.83;;;23.10;53.40;;;;;;5042411;28;20471;-45
2022/05/10 23:11:33;;;;;;;3.97;3.57;;;23.10;53.30;;;;;;5042057;28;20557;-45
2022/05/10 23:14:04;;;;;;;3.00;2.80;;;23.10;53.50;;;;;;5042213;28;20470;-48
2022/05/10 23:16:32;;;;;;;3.30;3.10;;;23.10;53.50;;;;;;5023216;28;20479;-47
2022/05/10 23:19:01;;;;;;;3.60;3.30;;;23.10;53.40;;;;;;5028550;28;20478;-46
2022/05/10 23:21:30;;;;;;;3.63;2.83;;;23.10;53.50;;;;;;5027373;28;20424;-48
2022/05/10 23:23:58;;;;;;;3.60;3.40;;;23.10;53.40;;;;;;5022398;28;20987;-45
2022/05/10 23:26:28;;;;;;;3.33;3.03;;;23.10;53.50;;;;;;5022813;28;21709;-46
2022/05/10 23:28:56;;;;;;;3.23;2.93;;;23.10;53.40;;;;;;5023218;28;20465;-47
2022/05/10 23:31:25;;;;;;;3.30;3.10;;;23.10;53.40;;;;;;5023550;28;20438;-46
2022/05/10 23:33:53;;;;;;;3.50;3.20;;;23.10;53.30;;;;;;5022663;28;20551;-43
2022/05/10 23:36:21;;;;;;;3.40;3.10;;;23.10;53.40;;;;;;5029640;28;20829;-45
2022/05/10 23:38:49;;;;;;;3.60;3.13;;;23.10;53.40;;;;;;5042627;28;20554;-47
2022/05/10 23:41:17;;;;;;;4.10;3.10;;;23.10;53.40;;;;;;5026916;28;20893;-47
2022/05/10 23:46:32;;;;;;;3.83;3.17;;;23.10;53.30;;;;;;5023843;28;20537;-44
2022/05/10 23:49:00;;;;;;;3.07;2.77;;;23.10;53.50;;;;;;5022967;28;20463;-48
2022/05/10 23:51:29;;;;;;;3.70;3.40;;;23.10;53.50;;;;;;5032730;28;20454;-45
2022/05/10 23:53:57;;;;;;;3.73;3.30;;;23.10;53.60;;;;;;5042645;28;20474;-46
2022/05/10 23:56:25;;;;;;;3.77;3.37;;;23.10;53.50;;;;;;5042910;28;20461;-47
2022/05/10 23:58:55;;;;;;;5.90;3.03;;;23.10;53.60;;;;;;5041944;28;20468;-47
